sensor_id;sensor_type;location;lat;lon;timestamp;temperature;humidity
29721;DHT22;23665;51.044;3.748;2022-11-21T00:00:18;9.60;99.90
29721;DHT22;23665;51.044;3.748;2022-11-21T00:02:44;9.50;99.90
29721;DHT22;23665;51.044;3.748;2022-11-21T00:05:10;9.60;99.90
29721;DHT22;23665;51.044;3.748;2022-11-21T00:07:36;9.60;99.90
29721;DHT22;23665;51.044;3.748;2022-11-21T00:10:02;9.50;99.90
29721;DHT22;23665;51.044;3.748;2022-11-21T00:12:27;9.50;99.90
29721;DHT22;23665;51.044;3.748;2022-11-21T00:14:53;9.50;99.90
29721;DHT22;23665;51.044;3.748;2022-11-21T00:17:18;9.40;99.90
29721;DHT22;23665;51.044;3.748;2022-11-21T00:19:44;9.50;99.90
29721;DHT22;23665;51.044;3.748;2022-11-21T00:22:10;9.60;99.90
29721;DHT22;23665;51.044;3.748;2022-11-21T00:24:35;9.70;99.90
29721;DHT22;23665;51.044;3.748;2022-11-21T00:27:01;9.70;99.90
29721;DHT22;23665;51.044;3.748;2022-11-21T00:29:27;9.60;99.90
29721;DHT22;23665;51.044;3.748;2022-11-21T00:31:53;9.70;99.90
29721;DHT22;23665;51.044;3.748;2022-11-21T00:34:19;9.50;99.90
29721;DHT22;23665;51.044;3.748;2022-11-21T00:36:45;9.50;99.90
29721;DHT22;23665;51.044;3.748;2022-11-21T00:39:11;9.50;99.90
29721;DHT22;23665;51.044;3.748;2022-11-21T00:41:36;9.50;99.90
29721;DHT22;23665;51.044;3.748;2022-11-21T00:44:02;9.30;99.90
29721;DHT22;23665;51.044;3.748;2022-11-21T00:46:28;9.30;99.90
29721;DHT22;23665;51.044;3.748;2022-11-21T00:48:53;9.30;99.90
29721;DHT22;23665;51.044;3.748;2022-11-21T00:51:19;9.60;99.90
29721;DHT22;23665;51.044;3.748;2022-11-21T00:53:45;9.60;99.90
29721;DHT22;23665;51.044;3.748;2022-11-21T00:56:10;9.70;99.90
29721;DHT22;23665;51.044;3.748;2022-11-21T00:58:36;9.70;99.90
29721;DHT22;23665;51.044;3.748;2022-11-21T01:01:04;9.50;99.90
29721;DHT22;23665;51.044;3.748;2022-11-21T01:03:32;9.30;99.90
29721;DHT22;23665;51.044;3.748;2022-11-21T01:06:24;9.30;99.90
29721;DHT22;23665;51.044;3.748;2022-11-21T01:08:50;9.40;99.90
29721;DHT22;23665;51.044;3.748;2022-11-21T01:11:18;9.40;99.90
29721;DHT22;23665;51.044;3.748;2022-11-21T01:13:45;9.50;99.90
29721;DHT22;23665;51.044;3.748;2022-11-21T01:16:18;9.40;99.90
29721;DHT22;23665;51.044;3.748;2022-11-21T01:18:45;9.10;99.90
29721;DHT22;23665;51.044;3.748;2022-11-21T01:21:19;8.90;99.90
29721;DHT22;23665;51.044;3.748;2022-11-21T01:23:45;8.80;99.90
29721;DHT22;23665;51.044;3.748;2022-11-21T01:26:30;8.60;99.90
29721;DHT22;23665;51.044;3.748;2022-11-21T01:28:57;8.70;99.90
29721;DHT22;23665;51.044;3.748;2022-11-21T01:31:28;8.70;99.90
29721;DHT22;23665;51.044;3.748;2022-11-21T01:33:56;8.80;99.90
29721;DHT22;23665;51.044;3.748;2022-11-21T01:36:24;8.80;99.90
29721;DHT22;23665;51.044;3.748;2022-11-21T01:38:52;8.80;99.90
29721;DHT22;23665;51.044;3.748;2022-11-21T01:41:27;8.60;99.90
29721;DHT22;23665;51.044;3.748;2022-11-21T01:43:55;8.60;99.90
29721;DHT22;23665;51.044;3.748;2022-11-21T01:46:22;8.80;99.90
29721;DHT22;23665;51.044;3.748;2022-11-21T01:57:15;8.90;99.90
29721;DHT22;23665;51.044;3.748;2022-11-21T01:59:47;8.80;99.90
29721;DHT22;23665;51.044;3.748;2022-11-21T02:02:16;8.90;99.90
29721;DHT22;23665;51.044;3.748;2022-11-21T02:04:43;8.80;99.90
29721;DHT22;23665;51.044;3.748;2022-11-21T02:07:11;8.90;99.90
29721;DHT22;23665;51.044;3.748;2022-11-21T02:09:40;8.70;99.90
29721;DHT22;23665;51.044;3.748;2022-11-21T02:12:30;8.80;99.90
29721;DHT22;23665;51.044;3.748;2022-11-21T02:14:54;8.90;99.90
29721;DHT22;23665;51.044;3.748;2022-11-21T02:17:21;9.00;99.90
29721;DHT22;23665;51.044;3.748;2022-11-21T02:19:55;9.10;99.90
29721;DHT22;23665;51.044;3.748;2022-11-21T02:22:44;9.10;99.90
29721;DHT22;23665;51.044;3.748;2022-11-21T02:25:17;9.20;99.90
29721;DHT22;23665;51.044;3.748;2022-11-21T02:27:45;9.10;99.90
29721;DHT22;23665;51.044;3.748;2022-11-21T02:30:11;9.10;99.90
29721;DHT22;23665;51.044;3.748;2022-11-21T02:32:40;9.20;99.90
29721;DHT22;23665;51.044;3.748;2022-11-21T02:35:07;9.10;99.90
29721;DHT22;23665;51.044;3.748;2022-11-21T02:37:35;9.00;99.90
29721;DHT22;23665;51.044;3.748;2022-11-21T02:40:05;8.90;99.90
29721;DHT22;23665;51.044;3.748;2022-11-21T02:42:42;9.00;99.90
29721;DHT22;23665;51.044;3.748;2022-11-21T02:45:13;8.90;99.90
29721;DHT22;23665;51.044;3.748;2022-11-21T02:47:41;8.90;99.90
29721;DHT22;23665;51.044;3.748;2022-11-21T02:50:22;8.90;99.90
29721;DHT22;23665;51.044;3.748;2022-11-21T02:52:49;9.00;99.90
29721;DHT22;23665;51.044;3.748;2022-11-21T02:55:15;9.10;99.90
29721;DHT22;23665;51.044;3.748;2022-11-21T02:57:41;9.30;99.90
29721;DHT22;23665;51.044;3.748;2022-11-21T03:00:08;9.30;99.90
29721;DHT22;23665;51.044;3.748;2022-11-21T03:02:34;9.30;99.90
29721;DHT22;23665;51.044;3.748;2022-11-21T03:05:01;9.40;99.90
29721;DHT22;23665;51.044;3.748;2022-11-21T03:07:27;9.40;99.90
29721;DHT22;23665;51.044;3.748;2022-11-21T03:09:53;9.10;99.90
29721;DHT22;23665;51.044;3.748;2022-11-21T03:12:18;9.00;99.90
29721;DHT22;23665;51.044;3.748;2022-11-21T03:14:44;8.90;99.90
29721;DHT22;23665;51.044;3.748;2022-11-21T03:17:09;8.70;99.90
29721;DHT22;23665;51.044;3.748;2022-11-21T03:19:35;8.80;99.90
29721;DHT22;23665;51.044;3.748;2022-11-21T03:22:02;8.80;99.90
29721;DHT22;23665;51.044;3.748;2022-11-21T03:24:27;8.60;99.90
29721;DHT22;23665;51.044;3.748;2022-11-21T03:26:53;8.60;99.90
29721;DHT22;23665;51.044;3.748;2022-11-21T03:29:19;8.70;99.90
29721;DHT22;23665;51.044;3.748;2022-11-21T03:31:44;8.50;99.90
29721;DHT22;23665;51.044;3.748;2022-11-21T03:34:10;8.50;99.90
29721;DHT22;23665;51.044;3.748;2022-11-21T03:36:36;8.50;99.90
29721;DHT22;23665;51.044;3.748;2022-11-21T03:39:02;8.40;99.90
29721;DHT22;23665;51.044;3.748;2022-11-21T03:41:27;8.30;99.90
29721;DHT22;23665;51.044;3.748;2022-11-21T03:43:54;8.20;99.90
29721;DHT22;23665;51.044;3.748;2022-11-21T03:46:20;8.20;99.90
29721;DHT22;23665;51.044;3.748;2022-11-21T03:48:45;8.00;99.90
29721;DHT22;23665;51.044;3.748;2022-11-21T03:51:11;7.80;99.90
29721;DHT22;23665;51.044;3.748;2022-11-21T03:53:37;7.70;99.90
29721;DHT22;23665;51.044;3.748;2022-11-21T03:56:02;7.70;99.90
29721;DHT22;23665;51.044;3.748;2022-11-21T03:58:28;7.80;99.90
29721;DHT22;23665;51.044;3.748;2022-11-21T04:00:54;7.70;99.90
29721;DHT22;23665;51.044;3.748;2022-11-21T04:03:20;7.70;99.90
29721;DHT22;23665;51.044;3.748;2022-11-21T04:05:45;7.60;99.90
29721;DHT22;23665;51.044;3.748;2022-11-21T04:08:11;7.60;99.90
29721;DHT22;23665;51.044;3.748;2022-11-21T04:10:37;7.50;99.90
29721;DHT22;23665;51.044;3.748;2022-11-21T04:13:02;7.40;99.90
29721;DHT22;23665;51.044;3.748;2022-11-21T04:15:28;7.30;99.90
29721;DHT22;23665;51.044;3.748;2022-11-21T04:17:53;7.40;99.90
29721;DHT22;23665;51.044;3.748;2022-11-21T04:20:19;7.30;99.90
29721;DHT22;23665;51.044;3.748;2022-11-21T04:22:44;7.40;99.90
29721;DHT22;23665;51.044;3.748;2022-11-21T04:25:10;7.50;99.90
29721;DHT22;23665;51.044;3.748;2022-11-21T04:27:38;7.60;99.90
29721;DHT22;23665;51.044;3.748;2022-11-21T04:30:04;7.40;99.90
29721;DHT22;23665;51.044;3.748;2022-11-21T04:32:30;7.40;99.90
29721;DHT22;23665;51.044;3.748;2022-11-21T04:34:55;7.30;99.90
29721;DHT22;23665;51.044;3.748;2022-11-21T04:37:21;7.30;99.90
29721;DHT22;23665;51.044;3.748;2022-11-21T04:39:47;7.30;99.90
29721;DHT22;23665;51.044;3.748;2022-11-21T04:42:12;7.50;99.90
29721;DHT22;23665;51.044;3.748;2022-11-21T04:44:38;7.50;99.90
29721;DHT22;23665;51.044;3.748;2022-11-21T04:47:04;7.60;99.90
29721;DHT22;23665;51.044;3.748;2022-11-21T04:49:29;7.60;99.90
29721;DHT22;23665;51.044;3.748;2022-11-21T04:51:55;7.60;99.90
29721;DHT22;23665;51.044;3.748;2022-11-21T04:54:20;7.60;99.90
29721;DHT22;23665;51.044;3.748;2022-11-21T04:56:46;7.60;99.90
29721;DHT22;23665;51.044;3.748;2022-11-21T04:59:12;7.60;99.90
29721;DHT22;23665;51.044;3.748;2022-11-21T05:01:37;7.70;99.90
29721;DHT22;23665;51.044;3.748;2022-11-21T05:04:03;7.70;99.90
29721;DHT22;23665;51.044;3.748;2022-11-21T05:06:29;7.60;99.90
29721;DHT22;23665;51.044;3.748;2022-11-21T05:08:54;7.60;99.90
29721;DHT22;23665;51.044;3.748;2022-11-21T05:11:20;7.60;99.90
29721;DHT22;23665;51.044;3.748;2022-11-21T05:14:05;7.60;99.90
29721;DHT22;23665;51.044;3.748;2022-11-21T05:16:33;7.50;99.90
29721;DHT22;23665;51.044;3.748;2022-11-21T05:18:59;7.30;99.90
29721;DHT22;23665;51.044;3.748;2022-11-21T05:21:25;7.40;99.90
29721;DHT22;23665;51.044;3.748;2022-11-21T05:23:51;7.30;99.90
29721;DHT22;23665;51.044;3.748;2022-11-21T05:26:16;7.20;99.90
29721;DHT22;23665;51.044;3.748;2022-11-21T05:28:42;7.20;99.90
29721;DHT22;23665;51.044;3.748;2022-11-21T05:31:07;7.10;99.90
29721;DHT22;23665;51.044;3.748;2022-11-21T05:33:33;7.10;99.90
29721;DHT22;23665;51.044;3.748;2022-11-21T05:35:59;7.20;99.90
29721;DHT22;23665;51.044;3.748;2022-11-21T05:38:24;7.20;99.90
29721;DHT22;23665;51.044;3.748;2022-11-21T05:40:53;7.20;99.90
29721;DHT22;23665;51.044;3.748;2022-11-21T05:43:19;7.10;99.90
29721;DHT22;23665;51.044;3.748;2022-11-21T05:46:03;7.10;99.90
29721;DHT22;23665;51.044;3.748;2022-11-21T05:48:28;7.10;99.90
29721;DHT22;23665;51.044;3.748;2022-11-21T05:50:54;7.20;99.90
29721;DHT22;23665;51.044;3.748;2022-11-21T05:53:20;7.10;99.90
29721;DHT22;23665;51.044;3.748;2022-11-21T05:55:45;7.00;99.90
29721;DHT22;23665;51.044;3.748;2022-11-21T07:36:35;8.00;99.90
29721;DHT22;23665;51.044;3.748;2022-11-21T07:39:01;7.40;99.90
29721;DHT22;23665;51.044;3.748;2022-11-21T07:41:27;7.30;99.90
29721;DHT22;23665;51.044;3.748;2022-11-21T07:43:53;7.20;99.90
29721;DHT22;23665;51.044;3.748;2022-11-21T07:46:18;7.20;99.90
29721;DHT22;23665;51.044;3.748;2022-11-21T07:48:44;7.20;99.90
29721;DHT22;23665;51.044;3.748;2022-11-21T07:51:10;7.00;99.90
29721;DHT22;23665;51.044;3.748;2022-11-21T07:53:36;7.10;99.90
29721;DHT22;23665;51.044;3.748;2022-11-21T07:56:01;7.20;99.90
29721;DHT22;23665;51.044;3.748;2022-11-21T07:58:27;7.20;99.90
29721;DHT22;23665;51.044;3.748;2022-11-21T08:00:53;7.10;99.90
29721;DHT22;23665;51.044;3.748;2022-11-21T08:03:18;7.10;99.90
29721;DHT22;23665;51.044;3.748;2022-11-21T08:05:44;7.20;99.90
29721;DHT22;23665;51.044;3.748;2022-11-21T08:08:11;7.10;99.90
29721;DHT22;23665;51.044;3.748;2022-11-21T08:10:39;7.10;99.90
29721;DHT22;23665;51.044;3.748;2022-11-21T08:13:05;7.20;99.90
29721;DHT22;23665;51.044;3.748;2022-11-21T08:15:30;7.30;99.90
29721;DHT22;23665;51.044;3.748;2022-11-21T08:17:56;7.30;99.90
29721;DHT22;23665;51.044;3.748;2022-11-21T08:20:22;7.30;99.90
29721;DHT22;23665;51.044;3.748;2022-11-21T08:22:47;7.40;99.90
29721;DHT22;23665;51.044;3.748;2022-11-21T08:25:13;7.40;99.90
29721;DHT22;23665;51.044;3.748;2022-11-21T08:27:39;7.40;99.90
29721;DHT22;23665;51.044;3.748;2022-11-21T08:30:08;7.40;99.90
29721;DHT22;23665;51.044;3.748;2022-11-21T08:32:34;7.40;99.90
29721;DHT22;23665;51.044;3.748;2022-11-21T08:35:00;7.30;99.90
29721;DHT22;23665;51.044;3.748;2022-11-21T08:37:26;7.40;99.90
29721;DHT22;23665;51.044;3.748;2022-11-21T08:39:53;7.50;99.90
29721;DHT22;23665;51.044;3.748;2022-11-21T08:42:19;7.50;99.90
29721;DHT22;23665;51.044;3.748;2022-11-21T08:44:45;7.50;99.90
29721;DHT22;23665;51.044;3.748;2022-11-21T08:47:10;7.60;99.90
29721;DHT22;23665;51.044;3.748;2022-11-21T08:49:36;7.70;99.90
29721;DHT22;23665;51.044;3.748;2022-11-21T08:52:02;7.80;99.90
29721;DHT22;23665;51.044;3.748;2022-11-21T08:54:27;7.80;99.90
29721;DHT22;23665;51.044;3.748;2022-11-21T08:56:53;7.90;99.90
29721;DHT22;23665;51.044;3.748;2022-11-21T08:59:19;7.90;99.90
29721;DHT22;23665;51.044;3.748;2022-11-21T09:01:44;8.00;99.90
29721;DHT22;23665;51.044;3.748;2022-11-21T09:04:10;8.20;99.90
29721;DHT22;23665;51.044;3.748;2022-11-21T09:06:37;8.30;99.90
29721;DHT22;23665;51.044;3.748;2022-11-21T09:09:04;8.50;99.90
29721;DHT22;23665;51.044;3.748;2022-11-21T09:11:30;8.70;99.90
29721;DHT22;23665;51.044;3.748;2022-11-21T09:13:58;8.80;99.90
29721;DHT22;23665;51.044;3.748;2022-11-21T09:16:42;8.90;99.90
29721;DHT22;23665;51.044;3.748;2022-11-21T09:19:26;8.90;99.90
29721;DHT22;23665;51.044;3.748;2022-11-21T09:21:52;8.90;99.90
29721;DHT22;23665;51.044;3.748;2022-11-21T09:24:18;8.90;99.90
29721;DHT22;23665;51.044;3.748;2022-11-21T09:26:44;9.00;99.90
29721;DHT22;23665;51.044;3.748;2022-11-21T09:29:10;9.10;99.90
29721;DHT22;23665;51.044;3.748;2022-11-21T09:31:36;9.20;99.90
29721;DHT22;23665;51.044;3.748;2022-11-21T09:34:03;9.40;99.90
29721;DHT22;23665;51.044;3.748;2022-11-21T09:36:28;9.50;99.90
29721;DHT22;23665;51.044;3.748;2022-11-21T09:38:54;9.70;99.90
29721;DHT22;23665;51.044;3.748;2022-11-21T09:47:41;9.70;99.90
29721;DHT22;23665;51.044;3.748;2022-11-21T09:53:05;9.40;99.90
29721;DHT22;23665;51.044;3.748;2022-11-21T09:59:34;9.60;99.90
29721;DHT22;23665;51.044;3.748;2022-11-21T10:01:51;9.70;99.90
29721;DHT22;23665;51.044;3.748;2022-11-21T10:04:17;9.90;99.90
29721;DHT22;23665;51.044;3.748;2022-11-21T10:06:50;9.90;99.90
29721;DHT22;23665;51.044;3.748;2022-11-21T10:09:29;10.10;99.90
29721;DHT22;23665;51.044;3.748;2022-11-21T10:26:22;9.60;99.90
29721;DHT22;23665;51.044;3.748;2022-11-21T10:28:59;9.70;99.90
29721;DHT22;23665;51.044;3.748;2022-11-21T10:31:30;9.70;99.90
29721;DHT22;23665;51.044;3.748;2022-11-21T10:34:01;9.80;99.90
29721;DHT22;23665;51.044;3.748;2022-11-21T10:36:35;9.80;99.90
29721;DHT22;23665;51.044;3.748;2022-11-21T10:39:19;9.90;99.90
29721;DHT22;23665;51.044;3.748;2022-11-21T10:41:57;10.00;99.90
29721;DHT22;23665;51.044;3.748;2022-11-21T10:44:27;10.00;99.90
29721;DHT22;23665;51.044;3.748;2022-11-21T10:47:23;10.00;99.90
29721;DHT22;23665;51.044;3.748;2022-11-21T10:50:01;9.80;99.90
29721;DHT22;23665;51.044;3.748;2022-11-21T10:52:31;9.60;99.90
29721;DHT22;23665;51.044;3.748;2022-11-21T10:57:28;9.80;99.90
29721;DHT22;23665;51.044;3.748;2022-11-21T11:00:14;9.80;99.90
29721;DHT22;23665;51.044;3.748;2022-11-21T11:02:42;9.80;99.90
29721;DHT22;23665;51.044;3.748;2022-11-21T11:08:08;9.60;99.90
29721;DHT22;23665;51.044;3.748;2022-11-21T11:10:42;9.60;99.90
29721;DHT22;23665;51.044;3.748;2022-11-21T11:13:19;9.80;99.90
29721;DHT22;23665;51.044;3.748;2022-11-21T11:18:31;10.00;99.90
29721;DHT22;23665;51.044;3.748;2022-11-21T11:21:19;9.80;99.90
29721;DHT22;23665;51.044;3.748;2022-11-21T11:23:50;9.70;99.90
29721;DHT22;23665;51.044;3.748;2022-11-21T11:26:26;9.90;99.90
29721;DHT22;23665;51.044;3.748;2022-11-21T11:28:58;10.10;99.90
29721;DHT22;23665;51.044;3.748;2022-11-21T11:32:20;10.20;99.90
29721;DHT22;23665;51.044;3.748;2022-11-21T11:37:39;10.20;99.90
29721;DHT22;23665;51.044;3.748;2022-11-21T11:40:20;10.10;99.90
29721;DHT22;23665;51.044;3.748;2022-11-21T11:49:29;9.80;99.90
29721;DHT22;23665;51.044;3.748;2022-11-21T11:51:59;9.80;99.90
29721;DHT22;23665;51.044;3.748;2022-11-21T11:54:38;9.70;99.90
29721;DHT22;23665;51.044;3.748;2022-11-21T11:57:08;9.70;99.90
29721;DHT22;23665;51.044;3.748;2022-11-21T11:59:45;9.80;99.90
29721;DHT22;23665;51.044;3.748;2022-11-21T12:02:25;9.80;99.90
29721;DHT22;23665;51.044;3.748;2022-11-21T12:05:02;9.70;99.90
29721;DHT22;23665;51.044;3.748;2022-11-21T12:07:39;9.80;99.90
29721;DHT22;23665;51.044;3.748;2022-11-21T12:10:47;10.00;99.90
29721;DHT22;23665;51.044;3.748;2022-11-21T12:13:30;10.10;99.90
29721;DHT22;23665;51.044;3.748;2022-11-21T12:16:02;10.20;99.90
29721;DHT22;23665;51.044;3.748;2022-11-21T12:18:35;10.20;99.90
29721;DHT22;23665;51.044;3.748;2022-11-21T12:29:03;10.50;99.90
29721;DHT22;23665;51.044;3.748;2022-11-21T12:43:06;10.20;99.90
29721;DHT22;23665;51.044;3.748;2022-11-21T12:57:14;10.20;99.90
29721;DHT22;23665;51.044;3.748;2022-11-21T13:04:49;10.20;99.90
29721;DHT22;23665;51.044;3.748;2022-11-21T13:07:16;10.30;99.90
29721;DHT22;23665;51.044;3.748;2022-11-21T13:09:46;10.50;99.90
29721;DHT22;23665;51.044;3.748;2022-11-21T13:14:51;10.70;99.90
29721;DHT22;23665;51.044;3.748;2022-11-21T13:20:16;10.50;99.90
29721;DHT22;23665;51.044;3.748;2022-11-21T13:32:41;10.40;99.90
29721;DHT22;23665;51.044;3.748;2022-11-21T13:45:45;10.30;99.90
29721;DHT22;23665;51.044;3.748;2022-11-21T13:59:17;10.50;99.90
29721;DHT22;23665;51.044;3.748;2022-11-21T14:02:00;10.50;99.90
29721;DHT22;23665;51.044;3.748;2022-11-21T14:04:43;10.60;99.90
29721;DHT22;23665;51.044;3.748;2022-11-21T14:07:21;10.50;99.90
29721;DHT22;23665;51.044;3.748;2022-11-21T14:09:49;10.40;99.90
29721;DHT22;23665;51.044;3.748;2022-11-21T14:12:26;10.50;99.90
29721;DHT22;23665;51.044;3.748;2022-11-21T14:15:06;10.40;99.90
29721;DHT22;23665;51.044;3.748;2022-11-21T14:17:57;10.40;99.90
29721;DHT22;23665;51.044;3.748;2022-11-21T14:20:48;10.50;99.90
29721;DHT22;23665;51.044;3.748;2022-11-21T14:23:22;10.60;99.90
29721;DHT22;23665;51.044;3.748;2022-11-21T14:26:33;10.50;99.90
29721;DHT22;23665;51.044;3.748;2022-11-21T14:28:39;10.50;99.90
29721;DHT22;23665;51.044;3.748;2022-11-21T14:31:07;10.60;99.90
29721;DHT22;23665;51.044;3.748;2022-11-21T14:33:39;10.60;99.90
29721;DHT22;23665;51.044;3.748;2022-11-21T14:36:20;10.60;99.90
29721;DHT22;23665;51.044;3.748;2022-11-21T14:38:54;10.80;99.90
29721;DHT22;23665;51.044;3.748;2022-11-21T14:46:24;10.60;99.90
29721;DHT22;23665;51.044;3.748;2022-11-21T14:48:49;10.50;99.90
29721;DHT22;23665;51.044;3.748;2022-11-21T14:51:19;10.50;99.90
29721;DHT22;23665;51.044;3.748;2022-11-21T14:53:48;10.50;99.90
29721;DHT22;23665;51.044;3.748;2022-11-21T14:56:22;10.50;99.90
29721;DHT22;23665;51.044;3.748;2022-11-21T14:58:50;10.50;99.90
29721;DHT22;23665;51.044;3.748;2022-11-21T15:01:28;10.40;99.90
29721;DHT22;23665;51.044;3.748;2022-11-21T15:04:05;10.50;99.90
29721;DHT22;23665;51.044;3.748;2022-11-21T15:06:41;10.60;99.90
29721;DHT22;23665;51.044;3.748;2022-11-21T15:09:13;10.50;99.90
29721;DHT22;23665;51.044;3.748;2022-11-21T15:14:29;10.20;99.90
29721;DHT22;23665;51.044;3.748;2022-11-21T15:16:56;10.20;99.90
29721;DHT22;23665;51.044;3.748;2022-11-21T15:19:25;10.20;99.90
29721;DHT22;23665;51.044;3.748;2022-11-21T15:21:56;10.20;99.90
29721;DHT22;23665;51.044;3.748;2022-11-21T15:24:40;10.10;99.90
29721;DHT22;23665;51.044;3.748;2022-11-21T15:32:29;10.00;99.90
29721;DHT22;23665;51.044;3.748;2022-11-21T15:34:55;10.00;99.90
29721;DHT22;23665;51.044;3.748;2022-11-21T15:37:20;9.90;99.90
29721;DHT22;23665;51.044;3.748;2022-11-21T15:39:49;9.90;99.90
29721;DHT22;23665;51.044;3.748;2022-11-21T15:45:00;10.20;99.90
29721;DHT22;23665;51.044;3.748;2022-11-21T15:47:26;10.10;99.90
29721;DHT22;23665;51.044;3.748;2022-11-21T15:49:53;9.90;99.90
29721;DHT22;23665;51.044;3.748;2022-11-21T15:52:19;10.00;99.90
29721;DHT22;23665;51.044;3.748;2022-11-21T15:54:45;9.90;99.90
29721;DHT22;23665;51.044;3.748;2022-11-21T15:57:10;9.80;99.90
29721;DHT22;23665;51.044;3.748;2022-11-21T15:59:36;9.80;99.90
29721;DHT22;23665;51.044;3.748;2022-11-21T16:02:02;9.80;99.90
29721;DHT22;23665;51.044;3.748;2022-11-21T16:04:28;9.80;99.90
29721;DHT22;23665;51.044;3.748;2022-11-21T16:06:53;9.60;99.90
29721;DHT22;23665;51.044;3.748;2022-11-21T16:09:19;9.70;99.90
29721;DHT22;23665;51.044;3.748;2022-11-21T16:11:45;9.70;99.90
29721;DHT22;23665;51.044;3.748;2022-11-21T16:14:13;9.80;99.90
29721;DHT22;23665;51.044;3.748;2022-11-21T16:16:40;9.80;99.90
29721;DHT22;23665;51.044;3.748;2022-11-21T16:19:06;9.60;99.90
29721;DHT22;23665;51.044;3.748;2022-11-21T16:21:35;9.60;99.90
29721;DHT22;23665;51.044;3.748;2022-11-21T16:24:00;9.40;99.90
29721;DHT22;23665;51.044;3.748;2022-11-21T16:26:26;9.40;99.90
29721;DHT22;23665;51.044;3.748;2022-11-21T16:28:55;9.10;99.90
29721;DHT22;23665;51.044;3.748;2022-11-21T16:31:26;9.00;99.90
29721;DHT22;23665;51.044;3.748;2022-11-21T16:33:52;9.10;99.90
29721;DHT22;23665;51.044;3.748;2022-11-21T16:36:24;9.10;99.90
29721;DHT22;23665;51.044;3.748;2022-11-21T16:38:49;9.00;99.90
29721;DHT22;23665;51.044;3.748;2022-11-21T16:41:20;9.00;99.90
29721;DHT22;23665;51.044;3.748;2022-11-21T16:43:48;8.90;99.90
29721;DHT22;23665;51.044;3.748;2022-11-21T16:46:15;8.90;99.90
29721;DHT22;23665;51.044;3.748;2022-11-21T16:48:41;8.80;99.90
29721;DHT22;23665;51.044;3.748;2022-11-21T16:51:18;8.90;99.90
29721;DHT22;23665;51.044;3.748;2022-11-21T16:53:46;9.00;99.90
29721;DHT22;23665;51.044;3.748;2022-11-21T16:56:12;9.10;99.90
29721;DHT22;23665;51.044;3.748;2022-11-21T16:58:39;9.00;99.90
29721;DHT22;23665;51.044;3.748;2022-11-21T17:01:22;9.00;99.90
29721;DHT22;23665;51.044;3.748;2022-11-21T17:03:49;9.10;99.90
29721;DHT22;23665;51.044;3.748;2022-11-21T17:06:18;9.10;99.90
29721;DHT22;23665;51.044;3.748;2022-11-21T17:08:44;9.20;99.90
29721;DHT22;23665;51.044;3.748;2022-11-21T17:11:18;9.20;99.90
29721;DHT22;23665;51.044;3.748;2022-11-21T17:13:45;9.30;99.90
29721;DHT22;23665;51.044;3.748;2022-11-21T17:16:12;9.30;99.90
29721;DHT22;23665;51.044;3.748;2022-11-21T17:18:39;9.30;99.90
29721;DHT22;23665;51.044;3.748;2022-11-21T17:21:06;9.20;99.90
29721;DHT22;23665;51.044;3.748;2022-11-21T17:23:37;9.30;99.90
29721;DHT22;23665;51.044;3.748;2022-11-21T17:26:08;9.40;99.90
29721;DHT22;23665;51.044;3.748;2022-11-21T17:28:34;9.20;99.90
29721;DHT22;23665;51.044;3.748;2022-11-21T17:31:10;9.20;99.90
29721;DHT22;23665;51.044;3.748;2022-11-21T17:33:37;9.30;99.90
29721;DHT22;23665;51.044;3.748;2022-11-21T17:36:04;9.30;99.90
29721;DHT22;23665;51.044;3.748;2022-11-21T17:38:32;9.30;99.90
29721;DHT22;23665;51.044;3.748;2022-11-21T17:41:03;9.30;99.90
29721;DHT22;23665;51.044;3.748;2022-11-21T17:43:32;9.50;99.90
29721;DHT22;23665;51.044;3.748;2022-11-21T17:46:13;9.40;99.90
29721;DHT22;23665;51.044;3.748;2022-11-21T17:48:44;9.40;99.90
29721;DHT22;23665;51.044;3.748;2022-11-21T17:51:15;9.50;99.90
29721;DHT22;23665;51.044;3.748;2022-11-21T17:53:50;9.50;99.90
29721;DHT22;23665;51.044;3.748;2022-11-21T17:56:21;9.40;99.90
29721;DHT22;23665;51.044;3.748;2022-11-21T17:59:03;9.40;99.90
29721;DHT22;23665;51.044;3.748;2022-11-21T18:01:31;9.40;99.90
29721;DHT22;23665;51.044;3.748;2022-11-21T18:04:02;9.40;99.90
29721;DHT22;23665;51.044;3.748;2022-11-21T18:06:32;9.30;99.90
29721;DHT22;23665;51.044;3.748;2022-11-21T18:08:58;9.30;99.90
29721;DHT22;23665;51.044;3.748;2022-11-21T18:11:28;9.30;99.90
29721;DHT22;23665;51.044;3.748;2022-11-21T18:13:54;9.20;99.90
29721;DHT22;23665;51.044;3.748;2022-11-21T18:16:22;9.30;99.90
29721;DHT22;23665;51.044;3.748;2022-11-21T18:18:48;9.10;99.90
29721;DHT22;23665;51.044;3.748;2022-11-21T18:21:25;9.00;99.90
29721;DHT22;23665;51.044;3.748;2022-11-21T18:23:52;8.80;99.90
29721;DHT22;23665;51.044;3.748;2022-11-21T18:26:23;8.70;99.90
29721;DHT22;23665;51.044;3.748;2022-11-21T18:28:51;8.70;99.90
29721;DHT22;23665;51.044;3.748;2022-11-21T18:31:19;8.70;99.90
29721;DHT22;23665;51.044;3.748;2022-11-21T18:33:48;8.80;99.90
29721;DHT22;23665;51.044;3.748;2022-11-21T18:36:14;8.70;99.90
29721;DHT22;23665;51.044;3.748;2022-11-21T18:38:41;8.80;99.90
29721;DHT22;23665;51.044;3.748;2022-11-21T18:41:17;8.90;99.90
29721;DHT22;23665;51.044;3.748;2022-11-21T18:43:53;9.00;99.90
29721;DHT22;23665;51.044;3.748;2022-11-21T18:46:21;9.00;99.90
29721;DHT22;23665;51.044;3.748;2022-11-21T18:48:47;9.00;99.90
29721;DHT22;23665;51.044;3.748;2022-11-21T18:51:20;9.00;99.90
29721;DHT22;23665;51.044;3.748;2022-11-21T18:54:00;9.10;99.90
29721;DHT22;23665;51.044;3.748;2022-11-21T18:56:27;9.20;99.90
29721;DHT22;23665;51.044;3.748;2022-11-21T18:58:53;9.10;99.90
29721;DHT22;23665;51.044;3.748;2022-11-21T19:01:24;9.10;99.90
29721;DHT22;23665;51.044;3.748;2022-11-21T19:03:51;9.00;99.90
29721;DHT22;23665;51.044;3.748;2022-11-21T19:06:19;9.00;99.90
29721;DHT22;23665;51.044;3.748;2022-11-21T19:08:46;9.00;99.90
29721;DHT22;23665;51.044;3.748;2022-11-21T19:11:14;8.90;99.90
29721;DHT22;23665;51.044;3.748;2022-11-21T19:13:40;8.90;99.90
29721;DHT22;23665;51.044;3.748;2022-11-21T19:16:12;8.90;99.90
29721;DHT22;23665;51.044;3.748;2022-11-21T19:18:39;8.90;99.90
29721;DHT22;23665;51.044;3.748;2022-11-21T19:21:07;9.00;99.90
29721;DHT22;23665;51.044;3.748;2022-11-21T19:23:35;9.00;99.90
29721;DHT22;23665;51.044;3.748;2022-11-21T19:26:03;9.10;99.90
29721;DHT22;23665;51.044;3.748;2022-11-21T19:28:29;9.00;99.90
29721;DHT22;23665;51.044;3.748;2022-11-21T19:30:56;8.90;99.90
29721;DHT22;23665;51.044;3.748;2022-11-21T19:33:22;9.00;99.90
29721;DHT22;23665;51.044;3.748;2022-11-21T19:35:48;9.10;99.90
29721;DHT22;23665;51.044;3.748;2022-11-21T19:38:14;9.20;99.90
29721;DHT22;23665;51.044;3.748;2022-11-21T19:40:40;9.20;99.90
29721;DHT22;23665;51.044;3.748;2022-11-21T19:43:26;9.40;99.90
29721;DHT22;23665;51.044;3.748;2022-11-21T19:45:52;9.40;99.90
29721;DHT22;23665;51.044;3.748;2022-11-21T19:48:18;9.50;99.90
29721;DHT22;23665;51.044;3.748;2022-11-21T19:50:53;9.50;99.90
29721;DHT22;23665;51.044;3.748;2022-11-21T19:53:19;9.20;99.90
29721;DHT22;23665;51.044;3.748;2022-11-21T19:55:45;9.20;99.90
29721;DHT22;23665;51.044;3.748;2022-11-21T19:58:10;9.30;99.90